createdAt,value
2023-07-16T00:02:37.969Z,24.31
2023-07-16T00:07:39.818Z,23.97
2023-07-16T00:12:41.169Z,24.02
2023-07-16T00:17:42.596Z,24.11
2023-07-16T00:22:44.069Z,24.12
2023-07-16T00:27:45.498Z,24.02
2023-07-16T00:32:46.836Z,23.97
2023-07-16T00:37:48.318Z,23.64
2023-07-16T00:42:49.594Z,23.02
2023-07-16T00:47:51.020Z,23.08
2023-07-16T00:52:52.269Z,23.53
2023-07-16T00:57:53.555Z,23.72
2023-07-16T01:02:54.839Z,24.02
2023-07-16T01:07:56.142Z,24.12
2023-07-16T01:12:57.456Z,23.61
2023-07-16T01:17:59.197Z,24.13
2023-07-16T01:23:00.622Z,22.71
2023-07-16T01:28:01.951Z,22.65
2023-07-16T01:33:03.373Z,22.07
2023-07-16T01:38:04.719Z,21.90
2023-07-16T01:43:05.979Z,22.27
2023-07-16T01:48:07.638Z,23.11
2023-07-16T01:53:08.844Z,23.19
2023-07-16T01:58:10.850Z,22.96
2023-07-16T02:03:12.208Z,23.40
2023-07-16T02:08:13.572Z,23.16
2023-07-16T02:13:14.773Z,23.33
2023-07-16T02:18:15.993Z,23.14
2023-07-16T02:23:17.251Z,23.14
2023-07-16T02:28:18.585Z,23.39
2023-07-16T02:33:19.885Z,23.18
2023-07-16T02:38:21.156Z,23.02
2023-07-16T02:43:22.459Z,22.94
2023-07-16T02:48:23.835Z,23.08
2023-07-16T02:53:25.243Z,22.34
2023-07-16T02:58:26.729Z,22.57
2023-07-16T03:03:35.872Z,22.82
2023-07-16T03:08:37.644Z,23.06
2023-07-16T03:13:38.877Z,22.59
2023-07-16T03:18:40.121Z,22.26
2023-07-16T03:23:41.486Z,22.65
2023-07-16T03:28:42.786Z,22.25
2023-07-16T03:33:44.136Z,23.01
2023-07-16T03:38:45.427Z,23.06
2023-07-16T03:43:46.743Z,23.17
2023-07-16T03:48:48.002Z,23.39
2023-07-16T03:53:49.237Z,23.70
2023-07-16T03:58:50.503Z,23.66
2023-07-16T04:03:51.799Z,23.72
2023-07-16T04:08:53.022Z,23.70
2023-07-16T04:13:54.490Z,23.82
2023-07-16T04:18:55.736Z,24.01
2023-07-16T04:23:57.109Z,23.85
2023-07-16T04:28:58.400Z,23.53
2023-07-16T04:33:59.813Z,23.36
2023-07-16T04:39:01.011Z,23.57
2023-07-16T04:44:02.421Z,23.34
2023-07-16T04:49:03.649Z,23.49
2023-07-16T04:54:05.112Z,22.85
2023-07-16T04:59:06.405Z,22.68
2023-07-16T05:04:09.066Z,22.84
2023-07-16T05:09:10.484Z,22.88
2023-07-16T05:14:11.739Z,22.95
2023-07-16T05:19:13.052Z,22.70
2023-07-16T05:24:14.282Z,22.28
2023-07-16T05:29:15.612Z,22.46
2023-07-16T05:34:17.106Z,22.16
2023-07-16T05:39:18.397Z,22.42
2023-07-16T05:44:19.686Z,22.24
2023-07-16T05:49:20.912Z,22.48
2023-07-16T05:54:22.737Z,22.39
2023-07-16T05:59:24.025Z,22.48
2023-07-16T06:04:25.297Z,22.56
2023-07-16T06:09:26.616Z,22.26
2023-07-16T06:14:27.823Z,22.40
2023-07-16T06:19:29.053Z,22.46
2023-07-16T06:24:30.374Z,22.01
2023-07-16T06:29:31.595Z,21.17
2023-07-16T06:34:32.904Z,20.93
2023-07-16T06:39:34.166Z,20.76
2023-07-16T06:44:35.389Z,21.46
2023-07-16T06:49:36.635Z,21.25
2023-07-16T06:54:37.882Z,20.63
2023-07-16T06:59:39.143Z,20.41
2023-07-16T07:04:40.496Z,21.17
2023-07-16T07:09:41.756Z,21.69
2023-07-16T07:14:43.411Z,22.07
2023-07-16T07:19:45.140Z,22.05
2023-07-16T07:24:46.392Z,22.50
2023-07-16T07:29:48.605Z,22.58
2023-07-16T07:34:49.996Z,22.70
2023-07-16T07:39:52.201Z,22.99
2023-07-16T07:44:53.476Z,22.81
2023-07-16T07:49:54.794Z,22.55
2023-07-16T07:54:56.070Z,22.60
2023-07-16T08:00:00.626Z,22.75
2023-07-16T08:05:05.081Z,22.42
2023-07-16T08:10:06.866Z,22.57
2023-07-16T08:15:09.164Z,23.00
2023-07-16T08:20:10.431Z,23.09
2023-07-16T08:25:11.919Z,22.77
2023-07-16T08:30:13.211Z,22.87
2023-07-16T08:35:17.724Z,22.96
2023-07-16T08:40:19.123Z,23.06
2023-07-16T08:45:23.180Z,23.21
2023-07-16T08:50:25.171Z,23.26
2023-07-16T08:55:26.397Z,23.17
2023-07-16T09:00:27.865Z,23.41
2023-07-16T09:05:39.628Z,23.42
2023-07-16T09:10:42.231Z,23.66
2023-07-16T09:15:45.846Z,23.75
2023-07-16T09:20:47.093Z,23.44
2023-07-16T09:25:48.414Z,23.80
2023-07-16T09:30:49.686Z,23.55
2023-07-16T09:35:50.951Z,23.86
2023-07-16T09:40:52.169Z,23.92
2023-07-16T09:45:53.496Z,23.94
2023-07-16T09:50:55.304Z,23.92
2023-07-16T09:55:56.920Z,23.69
2023-07-16T10:00:58.324Z,23.89
2023-07-16T10:05:59.650Z,24.30
2023-07-16T10:11:01.129Z,24.20
2023-07-16T10:16:02.596Z,24.08
2023-07-16T10:21:04.032Z,23.86
2023-07-16T10:26:08.341Z,24.39
2023-07-16T10:31:11.871Z,24.22
2023-07-16T10:36:13.230Z,24.38
2023-07-16T10:41:14.621Z,24.49
2023-07-16T10:46:16.136Z,24.33
2023-07-16T10:51:17.742Z,24.87
2023-07-16T10:56:19.533Z,25.56
2023-07-16T11:01:20.877Z,26.18
2023-07-16T11:06:22.206Z,25.73
2023-07-16T11:11:27.716Z,26.24
2023-07-16T11:16:28.992Z,26.46
2023-07-16T11:21:30.325Z,25.65
2023-07-16T11:26:31.633Z,25.37
2023-07-16T11:31:32.963Z,25.00
2023-07-16T11:36:34.316Z,24.00
2023-07-16T11:41:35.711Z,23.78
2023-07-16T11:46:36.997Z,24.97
2023-07-16T11:51:38.288Z,24.94
2023-07-16T11:56:39.513Z,24.64
2023-07-16T12:01:40.895Z,24.32
2023-07-16T12:06:42.311Z,24.28
2023-07-16T12:11:43.898Z,25.61
2023-07-16T12:16:45.306Z,25.12
2023-07-16T12:21:46.658Z,24.81
2023-07-16T12:26:47.997Z,25.69
2023-07-16T12:31:49.343Z,25.79
2023-07-16T12:36:50.619Z,24.72
2023-07-16T12:41:51.947Z,25.25
2023-07-16T12:46:53.263Z,26.34
2023-07-16T12:51:54.587Z,26.64
2023-07-16T12:56:55.794Z,26.44
2023-07-16T13:01:57.033Z,26.72
2023-07-16T13:06:58.347Z,26.75
2023-07-16T13:11:59.624Z,27.02
2023-07-16T13:17:02.490Z,27.57
2023-07-16T13:22:04.010Z,28.83
2023-07-16T13:27:05.325Z,28.37
2023-07-16T13:32:09.144Z,27.85
2023-07-16T13:37:10.452Z,28.83
2023-07-16T13:42:22.416Z,29.10
2023-07-16T13:47:25.852Z,28.64
2023-07-16T13:52:28.787Z,29.42
2023-07-16T13:57:30.159Z,29.41
2023-07-16T14:02:35.620Z,28.88
2023-07-16T14:07:36.858Z,27.99
2023-07-16T14:12:38.118Z,28.47
2023-07-16T14:17:39.667Z,28.51
2023-07-16T14:22:40.953Z,28.96
2023-07-16T14:27:42.174Z,29.77
2023-07-16T14:32:44.618Z,29.28
2023-07-16T14:37:45.825Z,29.17
2023-07-16T14:42:47.074Z,28.73
2023-07-16T14:47:48.398Z,27.80
2023-07-16T14:52:49.672Z,28.12
2023-07-16T14:57:51.190Z,29.60
2023-07-16T15:02:52.518Z,29.55
2023-07-16T15:07:53.807Z,29.96
2023-07-16T15:12:55.087Z,29.90
2023-07-16T15:17:56.386Z,30.12
2023-07-16T15:22:57.984Z,30.89
2023-07-16T15:28:00.502Z,30.69
2023-07-16T15:33:01.881Z,29.82
2023-07-16T15:38:03.822Z,30.07
2023-07-16T15:43:05.055Z,30.31
2023-07-16T15:48:08.465Z,30.49
2023-07-16T15:53:09.915Z,30.40
2023-07-16T15:58:11.233Z,30.64
2023-07-16T16:03:14.373Z,30.56
2023-07-16T16:08:19.199Z,31.42
2023-07-16T16:13:20.586Z,31.67
2023-07-16T16:18:22.007Z,31.09
2023-07-16T16:23:23.355Z,30.97
2023-07-16T16:28:24.669Z,30.96
2023-07-16T16:33:25.931Z,30.39
2023-07-16T16:38:27.164Z,29.45
2023-07-16T16:43:28.361Z,29.91
2023-07-16T16:48:31.661Z,29.98
2023-07-16T16:53:33.034Z,29.70
2023-07-16T16:58:34.344Z,30.13
2023-07-16T17:03:35.627Z,29.64
2023-07-16T17:08:37.837Z,29.52
2023-07-16T17:13:39.072Z,29.23
2023-07-16T17:18:42.435Z,29.24
2023-07-16T17:23:47.431Z,28.84
2023-07-16T17:28:50.937Z,29.08
2023-07-16T17:33:52.379Z,28.86
2023-07-16T17:38:53.635Z,28.36
2023-07-16T17:43:54.899Z,28.55
2023-07-16T17:48:56.170Z,28.79
2023-07-16T17:53:57.456Z,29.31
2023-07-16T17:58:58.806Z,29.70
2023-07-16T18:04:00.341Z,28.94
2023-07-16T18:09:01.666Z,28.44
2023-07-16T18:14:02.964Z,28.49
2023-07-16T18:19:04.278Z,28.24
2023-07-16T18:24:06.144Z,28.23
2023-07-16T18:29:07.364Z,28.32
2023-07-16T18:34:08.740Z,27.90
2023-07-16T18:39:10.127Z,28.14
2023-07-16T18:44:13.368Z,27.84
2023-07-16T18:49:14.678Z,27.75
2023-07-16T18:54:15.993Z,27.69
2023-07-16T18:59:17.298Z,27.33
2023-07-16T19:04:18.637Z,27.32
2023-07-16T19:09:22.019Z,27.20
2023-07-16T19:14:23.235Z,26.85
2023-07-16T19:19:24.452Z,26.74
2023-07-16T19:24:25.687Z,26.67
2023-07-16T19:29:27.021Z,26.13
2023-07-16T19:34:28.294Z,26.27
2023-07-16T19:39:29.550Z,26.19
2023-07-16T19:44:30.805Z,25.74
2023-07-16T19:49:32.273Z,25.74
2023-07-16T19:54:33.544Z,25.77
2023-07-16T19:59:34.830Z,25.51
2023-07-16T20:04:36.115Z,25.46
2023-07-16T20:09:37.357Z,25.22
2023-07-16T20:14:38.758Z,25.27
2023-07-16T20:19:40.363Z,24.76
2023-07-16T20:24:41.815Z,24.44
2023-07-16T20:29:43.602Z,24.29
2023-07-16T20:34:44.876Z,23.92
2023-07-16T20:39:46.188Z,24.20
2023-07-16T20:44:47.489Z,24.67
2023-07-16T20:49:48.702Z,24.38
2023-07-16T20:54:49.985Z,24.16
2023-07-16T20:59:51.334Z,24.06
2023-07-16T21:04:54.943Z,24.22
2023-07-16T21:09:56.327Z,24.31
2023-07-16T21:15:00.038Z,23.84
2023-07-16T21:20:01.473Z,23.94
2023-07-16T21:25:02.783Z,24.24
2023-07-16T21:30:04.441Z,24.19
2023-07-16T21:35:05.795Z,23.45
2023-07-16T21:40:10.174Z,23.15
2023-07-16T21:45:11.518Z,23.77
2023-07-16T21:50:12.816Z,23.78
2023-07-16T21:55:14.058Z,23.83
2023-07-16T22:00:15.693Z,23.24
2023-07-16T22:05:17.030Z,23.23
2023-07-16T22:10:18.369Z,22.95
2023-07-16T22:15:19.632Z,23.44
2023-07-16T22:20:26.381Z,23.62
2023-07-16T22:25:27.679Z,23.52
2023-07-16T22:30:28.970Z,23.40
2023-07-16T22:35:30.272Z,23.51
2023-07-16T22:40:31.616Z,23.44
2023-07-16T22:45:33.258Z,23.39
2023-07-16T22:50:34.568Z,23.16
2023-07-16T22:55:37.779Z,22.85
2023-07-16T23:00:39.054Z,23.08
2023-07-16T23:05:40.533Z,23.16
2023-07-16T23:10:41.777Z,23.22
2023-07-16T23:15:43.033Z,22.62
2023-07-16T23:20:44.308Z,22.51
2023-07-16T23:25:45.521Z,22.69
2023-07-16T23:30:47.165Z,22.98
2023-07-16T23:35:48.725Z,22.56
2023-07-16T23:40:50.096Z,22.76
2023-07-16T23:45:51.302Z,22.59
2023-07-16T23:50:52.567Z,22.74
2023-07-16T23:55:53.999Z,22.47
